sensor_id;sensor_type;location;lat;lon;timestamp;P1;durP1;ratioP1;P2;durP2;ratioP2
43678;SDS011;29279;50.858;4.392;2023-01-28T00:00:31;18.52;;;13.82;;
43678;SDS011;29279;50.858;4.392;2023-01-28T00:02:57;17.88;;;12.93;;
43678;SDS011;29279;50.858;4.392;2023-01-28T00:05:23;17.17;;;13.40;;
43678;SDS011;29279;50.858;4.392;2023-01-28T00:07:49;17.50;;;12.43;;
43678;SDS011;29279;50.858;4.392;2023-01-28T00:10:15;17.13;;;13.50;;
43678;SDS011;29279;50.858;4.392;2023-01-28T00:12:41;16.88;;;13.13;;
43678;SDS011;29279;50.858;4.392;2023-01-28T00:15:07;21.48;;;13.70;;
43678;SDS011;29279;50.858;4.392;2023-01-28T00:17:34;19.67;;;14.05;;
43678;SDS011;29279;50.858;4.392;2023-01-28T00:20:01;17.38;;;13.48;;
43678;SDS011;29279;50.858;4.392;2023-01-28T00:22:28;17.25;;;12.90;;
43678;SDS011;29279;50.858;4.392;2023-01-28T00:24:53;18.38;;;13.57;;
43678;SDS011;29279;50.858;4.392;2023-01-28T00:27:19;18.65;;;12.43;;
43678;SDS011;29279;50.858;4.392;2023-01-28T00:29:45;15.80;;;12.73;;
43678;SDS011;29279;50.858;4.392;2023-01-28T00:32:10;19.05;;;14.15;;
43678;SDS011;29279;50.858;4.392;2023-01-28T00:34:36;17.98;;;13.07;;
43678;SDS011;29279;50.858;4.392;2023-01-28T00:37:02;17.80;;;13.75;;
43678;SDS011;29279;50.858;4.392;2023-01-28T00:39:27;19.63;;;13.50;;
43678;SDS011;29279;50.858;4.392;2023-01-28T00:41:53;19.60;;;13.23;;
43678;SDS011;29279;50.858;4.392;2023-01-28T00:44:19;17.27;;;12.60;;
43678;SDS011;29279;50.858;4.392;2023-01-28T00:46:44;17.17;;;13.68;;
43678;SDS011;29279;50.858;4.392;2023-01-28T00:49:10;16.63;;;13.27;;
43678;SDS011;29279;50.858;4.392;2023-01-28T00:51:36;17.67;;;13.68;;
43678;SDS011;29279;50.858;4.392;2023-01-28T00:54:02;16.80;;;12.73;;
43678;SDS011;29279;50.858;4.392;2023-01-28T00:56:28;19.50;;;13.38;;
43678;SDS011;29279;50.858;4.392;2023-01-28T00:58:53;16.58;;;12.13;;
43678;SDS011;29279;50.858;4.392;2023-01-28T01:01:21;15.75;;;12.55;;
43678;SDS011;29279;50.858;4.392;2023-01-28T01:03:48;15.90;;;12.20;;
43678;SDS011;29279;50.858;4.392;2023-01-28T01:06:21;19.23;;;11.80;;
43678;SDS011;29279;50.858;4.392;2023-01-28T01:08:48;17.50;;;12.00;;
43678;SDS011;29279;50.858;4.392;2023-01-28T01:11:14;23.73;;;15.85;;
43678;SDS011;29279;50.858;4.392;2023-01-28T01:13:40;19.42;;;13.82;;
43678;SDS011;29279;50.858;4.392;2023-01-28T01:18:38;17.15;;;12.00;;
43678;SDS011;29279;50.858;4.392;2023-01-28T01:21:11;15.57;;;11.45;;
43678;SDS011;29279;50.858;4.392;2023-01-28T01:23:42;18.17;;;11.98;;
43678;SDS011;29279;50.858;4.392;2023-01-28T01:26:08;16.85;;;12.13;;
43678;SDS011;29279;50.858;4.392;2023-01-28T01:28:35;16.02;;;12.43;;
43678;SDS011;29279;50.858;4.392;2023-01-28T01:31:02;16.42;;;12.85;;
43678;SDS011;29279;50.858;4.392;2023-01-28T01:33:32;17.33;;;12.77;;
43678;SDS011;29279;50.858;4.392;2023-01-28T01:35:58;17.15;;;13.02;;
43678;SDS011;29279;50.858;4.392;2023-01-28T01:38:25;17.27;;;12.48;;
43678;SDS011;29279;50.858;4.392;2023-01-28T01:40:51;16.08;;;12.43;;
43678;SDS011;29279;50.858;4.392;2023-01-28T01:43:20;18.75;;;12.95;;
43678;SDS011;29279;50.858;4.392;2023-01-28T01:45:50;17.80;;;13.38;;
43678;SDS011;29279;50.858;4.392;2023-01-28T01:48:20;17.92;;;13.65;;
43678;SDS011;29279;50.858;4.392;2023-01-28T01:50:53;24.13;;;13.75;;
43678;SDS011;29279;50.858;4.392;2023-01-28T01:53:23;19.85;;;14.30;;
43678;SDS011;29279;50.858;4.392;2023-01-28T01:55:51;21.33;;;14.95;;
43678;SDS011;29279;50.858;4.392;2023-01-28T01:58:20;23.83;;;14.63;;
43678;SDS011;29279;50.858;4.392;2023-01-28T02:00:49;20.60;;;14.95;;
43678;SDS011;29279;50.858;4.392;2023-01-28T02:03:15;18.35;;;14.23;;
43678;SDS011;29279;50.858;4.392;2023-01-28T02:05:48;15.25;;;11.65;;
43678;SDS011;29279;50.858;4.392;2023-01-28T02:08:14;20.42;;;14.68;;
43678;SDS011;29279;50.858;4.392;2023-01-28T02:11:04;24.30;;;14.25;;
43678;SDS011;29279;50.858;4.392;2023-01-28T02:13:33;20.77;;;15.25;;
43678;SDS011;29279;50.858;4.392;2023-01-28T02:16:03;19.88;;;13.32;;
43678;SDS011;29279;50.858;4.392;2023-01-28T02:18:31;19.85;;;14.52;;
43678;SDS011;29279;50.858;4.392;2023-01-28T02:31:21;21.48;;;14.30;;
43678;SDS011;29279;50.858;4.392;2023-01-28T02:36:31;23.35;;;15.20;;
43678;SDS011;29279;50.858;4.392;2023-01-28T02:39:12;25.15;;;14.95;;
43678;SDS011;29279;50.858;4.392;2023-01-28T02:41:55;18.63;;;14.05;;
43678;SDS011;29279;50.858;4.392;2023-01-28T02:44:26;23.88;;;15.18;;
43678;SDS011;29279;50.858;4.392;2023-01-28T02:46:52;22.55;;;16.02;;
43678;SDS011;29279;50.858;4.392;2023-01-28T02:49:44;26.75;;;16.17;;
43678;SDS011;29279;50.858;4.392;2023-01-28T02:58:04;21.17;;;13.95;;
43678;SDS011;29279;50.858;4.392;2023-01-28T03:00:55;14.00;;;9.53;;
43678;SDS011;29279;50.858;4.392;2023-01-28T03:03:32;20.77;;;14.38;;
43678;SDS011;29279;50.858;4.392;2023-01-28T03:06:17;19.52;;;13.80;;
43678;SDS011;29279;50.858;4.392;2023-01-28T03:08:49;20.17;;;14.68;;
43678;SDS011;29279;50.858;4.392;2023-01-28T03:11:39;23.23;;;15.02;;
43678;SDS011;29279;50.858;4.392;2023-01-28T03:14:26;21.30;;;14.05;;
43678;SDS011;29279;50.858;4.392;2023-01-28T03:20:32;20.45;;;14.50;;
43678;SDS011;29279;50.858;4.392;2023-01-28T03:23:26;19.90;;;14.15;;
43678;SDS011;29279;50.858;4.392;2023-01-28T03:26:23;21.90;;;14.77;;
43678;SDS011;29279;50.858;4.392;2023-01-28T03:29:11;20.10;;;13.90;;
43678;SDS011;29279;50.858;4.392;2023-01-28T03:31:56;20.80;;;14.82;;
43678;SDS011;29279;50.858;4.392;2023-01-28T03:34:43;20.02;;;14.52;;
43678;SDS011;29279;50.858;4.392;2023-01-28T03:37:28;19.13;;;13.32;;
43678;SDS011;29279;50.858;4.392;2023-01-28T03:40:00;20.85;;;13.95;;
43678;SDS011;29279;50.858;4.392;2023-01-28T03:42:30;22.92;;;15.15;;
43678;SDS011;29279;50.858;4.392;2023-01-28T03:44:56;20.17;;;13.82;;
43678;SDS011;29279;50.858;4.392;2023-01-28T03:47:26;18.45;;;13.80;;
43678;SDS011;29279;50.858;4.392;2023-01-28T03:49:54;20.98;;;13.75;;
43678;SDS011;29279;50.858;4.392;2023-01-28T03:52:24;19.52;;;13.45;;
43678;SDS011;29279;50.858;4.392;2023-01-28T03:54:52;21.92;;;14.80;;
43678;SDS011;29279;50.858;4.392;2023-01-28T03:57:22;21.80;;;13.93;;
43678;SDS011;29279;50.858;4.392;2023-01-28T03:59:50;20.35;;;13.90;;
43678;SDS011;29279;50.858;4.392;2023-01-28T04:02:17;21.73;;;13.75;;
43678;SDS011;29279;50.858;4.392;2023-01-28T04:04:43;20.08;;;13.68;;
43678;SDS011;29279;50.858;4.392;2023-01-28T04:07:10;18.10;;;12.55;;
43678;SDS011;29279;50.858;4.392;2023-01-28T04:09:38;22.23;;;14.63;;
43678;SDS011;29279;50.858;4.392;2023-01-28T04:12:04;20.17;;;14.10;;
43678;SDS011;29279;50.858;4.392;2023-01-28T04:14:30;19.90;;;13.73;;
43678;SDS011;29279;50.858;4.392;2023-01-28T04:16:56;21.02;;;14.65;;
43678;SDS011;29279;50.858;4.392;2023-01-28T04:19:22;19.60;;;13.80;;
43678;SDS011;29279;50.858;4.392;2023-01-28T04:21:48;21.50;;;13.52;;
43678;SDS011;29279;50.858;4.392;2023-01-28T04:24:14;20.95;;;13.73;;
43678;SDS011;29279;50.858;4.392;2023-01-28T04:26:40;18.92;;;13.18;;
43678;SDS011;29279;50.858;4.392;2023-01-28T04:29:06;21.08;;;14.65;;
43678;SDS011;29279;50.858;4.392;2023-01-28T04:31:32;20.10;;;13.68;;
43678;SDS011;29279;50.858;4.392;2023-01-28T04:33:58;18.95;;;13.95;;
43678;SDS011;29279;50.858;4.392;2023-01-28T04:36:24;20.02;;;13.63;;
43678;SDS011;29279;50.858;4.392;2023-01-28T04:38:50;18.80;;;13.45;;
43678;SDS011;29279;50.858;4.392;2023-01-28T04:41:16;18.70;;;13.00;;
43678;SDS011;29279;50.858;4.392;2023-01-28T04:43:42;18.15;;;12.88;;
43678;SDS011;29279;50.858;4.392;2023-01-28T04:46:08;21.50;;;12.18;;
43678;SDS011;29279;50.858;4.392;2023-01-28T04:48:34;25.00;;;13.80;;
43678;SDS011;29279;50.858;4.392;2023-01-28T04:51:01;19.70;;;12.98;;
43678;SDS011;29279;50.858;4.392;2023-01-28T04:53:27;20.40;;;14.60;;
43678;SDS011;29279;50.858;4.392;2023-01-28T04:55:53;22.42;;;12.63;;
43678;SDS011;29279;50.858;4.392;2023-01-28T04:58:19;19.67;;;13.57;;
43678;SDS011;29279;50.858;4.392;2023-01-28T05:00:44;20.45;;;13.95;;
43678;SDS011;29279;50.858;4.392;2023-01-28T05:03:10;23.92;;;13.45;;
43678;SDS011;29279;50.858;4.392;2023-01-28T05:05:36;23.55;;;14.75;;
43678;SDS011;29279;50.858;4.392;2023-01-28T05:08:01;20.88;;;14.98;;
43678;SDS011;29279;50.858;4.392;2023-01-28T05:10:27;19.45;;;13.57;;
43678;SDS011;29279;50.858;4.392;2023-01-28T05:12:52;21.13;;;14.80;;
43678;SDS011;29279;50.858;4.392;2023-01-28T05:15:18;22.50;;;15.45;;
43678;SDS011;29279;50.858;4.392;2023-01-28T05:17:46;22.48;;;15.43;;
43678;SDS011;29279;50.858;4.392;2023-01-28T05:20:13;21.25;;;14.23;;
43678;SDS011;29279;50.858;4.392;2023-01-28T05:22:39;22.08;;;15.15;;
43678;SDS011;29279;50.858;4.392;2023-01-28T05:25:05;20.83;;;14.60;;
43678;SDS011;29279;50.858;4.392;2023-01-28T05:27:32;20.80;;;14.73;;
43678;SDS011;29279;50.858;4.392;2023-01-28T05:29:58;37.42;;;15.50;;
43678;SDS011;29279;50.858;4.392;2023-01-28T05:32:24;23.65;;;15.82;;
43678;SDS011;29279;50.858;4.392;2023-01-28T05:34:51;20.63;;;14.95;;
43678;SDS011;29279;50.858;4.392;2023-01-28T05:37:16;21.73;;;15.30;;
43678;SDS011;29279;50.858;4.392;2023-01-28T05:39:42;19.67;;;13.80;;
43678;SDS011;29279;50.858;4.392;2023-01-28T05:42:08;20.35;;;14.52;;
43678;SDS011;29279;50.858;4.392;2023-01-28T05:44:33;17.77;;;12.63;;
43678;SDS011;29279;50.858;4.392;2023-01-28T05:47:00;19.80;;;13.65;;
43678;SDS011;29279;50.858;4.392;2023-01-28T05:49:29;20.15;;;14.05;;
43678;SDS011;29279;50.858;4.392;2023-01-28T05:51:54;24.45;;;14.38;;
43678;SDS011;29279;50.858;4.392;2023-01-28T05:54:20;22.25;;;14.73;;
43678;SDS011;29279;50.858;4.392;2023-01-28T05:56:46;18.33;;;13.75;;
43678;SDS011;29279;50.858;4.392;2023-01-28T05:59:12;19.65;;;13.98;;
43678;SDS011;29279;50.858;4.392;2023-01-28T06:01:38;18.85;;;13.75;;
43678;SDS011;29279;50.858;4.392;2023-01-28T06:04:11;23.83;;;14.30;;
43678;SDS011;29279;50.858;4.392;2023-01-28T06:06:41;20.73;;;14.07;;
43678;SDS011;29279;50.858;4.392;2023-01-28T06:09:13;21.58;;;13.38;;
43678;SDS011;29279;50.858;4.392;2023-01-28T06:12:00;19.63;;;13.60;;
43678;SDS011;29279;50.858;4.392;2023-01-28T06:14:26;23.30;;;14.65;;
43678;SDS011;29279;50.858;4.392;2023-01-28T06:16:52;22.95;;;14.18;;
43678;SDS011;29279;50.858;4.392;2023-01-28T06:19:17;19.42;;;13.63;;
43678;SDS011;29279;50.858;4.392;2023-01-28T06:21:43;19.50;;;13.80;;
43678;SDS011;29279;50.858;4.392;2023-01-28T06:24:09;24.20;;;14.43;;
43678;SDS011;29279;50.858;4.392;2023-01-28T06:26:34;20.42;;;14.23;;
43678;SDS011;29279;50.858;4.392;2023-01-28T06:29:00;23.27;;;14.20;;
43678;SDS011;29279;50.858;4.392;2023-01-28T06:31:26;21.15;;;14.20;;
43678;SDS011;29279;50.858;4.392;2023-01-28T06:33:51;19.00;;;13.40;;
43678;SDS011;29279;50.858;4.392;2023-01-28T06:36:17;17.77;;;12.75;;
43678;SDS011;29279;50.858;4.392;2023-01-28T06:38:43;18.52;;;13.00;;
43678;SDS011;29279;50.858;4.392;2023-01-28T06:41:08;18.17;;;12.70;;
43678;SDS011;29279;50.858;4.392;2023-01-28T06:43:34;18.15;;;13.15;;
43678;SDS011;29279;50.858;4.392;2023-01-28T06:46:00;18.05;;;13.38;;
43678;SDS011;29279;50.858;4.392;2023-01-28T06:48:26;17.85;;;12.90;;
43678;SDS011;29279;50.858;4.392;2023-01-28T06:50:52;21.58;;;12.98;;
43678;SDS011;29279;50.858;4.392;2023-01-28T06:53:18;19.10;;;13.38;;
43678;SDS011;29279;50.858;4.392;2023-01-28T06:55:44;19.58;;;13.88;;
43678;SDS011;29279;50.858;4.392;2023-01-28T06:58:13;20.58;;;14.40;;
43678;SDS011;29279;50.858;4.392;2023-01-28T07:00:38;20.77;;;13.10;;
43678;SDS011;29279;50.858;4.392;2023-01-28T07:03:04;19.85;;;13.63;;
43678;SDS011;29279;50.858;4.392;2023-01-28T07:05:30;18.73;;;13.93;;
43678;SDS011;29279;50.858;4.392;2023-01-28T07:07:56;22.45;;;14.05;;
43678;SDS011;29279;50.858;4.392;2023-01-28T07:10:21;18.75;;;13.75;;
43678;SDS011;29279;50.858;4.392;2023-01-28T07:12:47;19.15;;;13.50;;
43678;SDS011;29279;50.858;4.392;2023-01-28T07:15:13;15.88;;;12.40;;
43678;SDS011;29279;50.858;4.392;2023-01-28T07:17:42;30.77;;;13.15;;
43678;SDS011;29279;50.858;4.392;2023-01-28T07:20:08;18.60;;;13.30;;
43678;SDS011;29279;50.858;4.392;2023-01-28T07:22:36;17.95;;;12.80;;
43678;SDS011;29279;50.858;4.392;2023-01-28T07:25:04;18.75;;;12.85;;
43678;SDS011;29279;50.858;4.392;2023-01-28T07:27:31;18.35;;;13.02;;
43678;SDS011;29279;50.858;4.392;2023-01-28T07:29:56;22.10;;;13.90;;
43678;SDS011;29279;50.858;4.392;2023-01-28T07:32:22;18.27;;;13.13;;
43678;SDS011;29279;50.858;4.392;2023-01-28T07:34:50;19.73;;;12.90;;
43678;SDS011;29279;50.858;4.392;2023-01-28T07:37:16;19.52;;;13.57;;
43678;SDS011;29279;50.858;4.392;2023-01-28T07:39:42;20.30;;;13.75;;
43678;SDS011;29279;50.858;4.392;2023-01-28T07:42:07;20.83;;;13.52;;
43678;SDS011;29279;50.858;4.392;2023-01-28T07:44:33;19.25;;;13.65;;
43678;SDS011;29279;50.858;4.392;2023-01-28T07:47:01;17.52;;;12.57;;
43678;SDS011;29279;50.858;4.392;2023-01-28T07:49:30;18.42;;;13.02;;
43678;SDS011;29279;50.858;4.392;2023-01-28T07:51:58;20.13;;;13.15;;
43678;SDS011;29279;50.858;4.392;2023-01-28T07:54:23;19.63;;;13.95;;
43678;SDS011;29279;50.858;4.392;2023-01-28T07:56:49;21.50;;;14.05;;
43678;SDS011;29279;50.858;4.392;2023-01-28T07:59:15;18.15;;;13.30;;
43678;SDS011;29279;50.858;4.392;2023-01-28T08:01:40;18.38;;;13.15;;
43678;SDS011;29279;50.858;4.392;2023-01-28T08:04:06;17.70;;;12.63;;
43678;SDS011;29279;50.858;4.392;2023-01-28T08:06:31;19.77;;;13.10;;
43678;SDS011;29279;50.858;4.392;2023-01-28T08:09:02;19.75;;;12.70;;
43678;SDS011;29279;50.858;4.392;2023-01-28T08:11:30;20.42;;;13.20;;
43678;SDS011;29279;50.858;4.392;2023-01-28T08:13:56;19.00;;;13.70;;
43678;SDS011;29279;50.858;4.392;2023-01-28T08:16:22;18.27;;;13.00;;
43678;SDS011;29279;50.858;4.392;2023-01-28T08:18:48;19.33;;;12.25;;
43678;SDS011;29279;50.858;4.392;2023-01-28T08:21:13;19.67;;;13.57;;
43678;SDS011;29279;50.858;4.392;2023-01-28T08:23:39;19.98;;;13.93;;
43678;SDS011;29279;50.858;4.392;2023-01-28T08:26:05;18.13;;;12.75;;
43678;SDS011;29279;50.858;4.392;2023-01-28T08:28:31;19.92;;;13.05;;
43678;SDS011;29279;50.858;4.392;2023-01-28T08:30:58;18.38;;;13.15;;
43678;SDS011;29279;50.858;4.392;2023-01-28T08:33:24;21.67;;;12.93;;
43678;SDS011;29279;50.858;4.392;2023-01-28T08:35:50;19.30;;;13.35;;
43678;SDS011;29279;50.858;4.392;2023-01-28T08:38:16;23.85;;;14.40;;
43678;SDS011;29279;50.858;4.392;2023-01-28T08:40:42;19.80;;;13.75;;
43678;SDS011;29279;50.858;4.392;2023-01-28T08:43:07;19.92;;;14.15;;
43678;SDS011;29279;50.858;4.392;2023-01-28T08:45:33;17.10;;;13.27;;
43678;SDS011;29279;50.858;4.392;2023-01-28T08:48:00;23.95;;;15.32;;
43678;SDS011;29279;50.858;4.392;2023-01-28T08:50:30;20.10;;;13.88;;
43678;SDS011;29279;50.858;4.392;2023-01-28T08:52:59;20.23;;;14.73;;
43678;SDS011;29279;50.858;4.392;2023-01-28T08:55:27;18.92;;;13.77;;
43678;SDS011;29279;50.858;4.392;2023-01-28T08:57:53;20.00;;;14.57;;
43678;SDS011;29279;50.858;4.392;2023-01-28T09:00:19;22.58;;;14.98;;
43678;SDS011;29279;50.858;4.392;2023-01-28T09:02:46;26.45;;;15.15;;
43678;SDS011;29279;50.858;4.392;2023-01-28T09:05:15;25.00;;;15.60;;
43678;SDS011;29279;50.858;4.392;2023-01-28T09:07:40;24.90;;;16.33;;
43678;SDS011;29279;50.858;4.392;2023-01-28T09:10:07;24.33;;;14.85;;
43678;SDS011;29279;50.858;4.392;2023-01-28T09:12:34;21.33;;;15.05;;
43678;SDS011;29279;50.858;4.392;2023-01-28T09:15:00;27.95;;;17.30;;
43678;SDS011;29279;50.858;4.392;2023-01-28T09:17:26;23.77;;;16.55;;
43678;SDS011;29279;50.858;4.392;2023-01-28T09:19:51;21.80;;;16.30;;
43678;SDS011;29279;50.858;4.392;2023-01-28T09:22:20;24.92;;;15.55;;
43678;SDS011;29279;50.858;4.392;2023-01-28T09:24:46;24.00;;;15.38;;
43678;SDS011;29279;50.858;4.392;2023-01-28T09:27:12;23.25;;;16.35;;
43678;SDS011;29279;50.858;4.392;2023-01-28T09:29:37;22.58;;;16.10;;
43678;SDS011;29279;50.858;4.392;2023-01-28T09:32:04;25.25;;;15.38;;
43678;SDS011;29279;50.858;4.392;2023-01-28T09:34:31;30.85;;;16.00;;
43678;SDS011;29279;50.858;4.392;2023-01-28T09:36:57;22.88;;;16.02;;
43678;SDS011;29279;50.858;4.392;2023-01-28T09:39:22;34.72;;;16.17;;
43678;SDS011;29279;50.858;4.392;2023-01-28T09:47:19;25.02;;;16.38;;
43678;SDS011;29279;50.858;4.392;2023-01-28T09:49:51;22.45;;;15.98;;
43678;SDS011;29279;50.858;4.392;2023-01-28T09:52:18;25.63;;;16.40;;
43678;SDS011;29279;50.858;4.392;2023-01-28T09:54:51;23.92;;;16.02;;
43678;SDS011;29279;50.858;4.392;2023-01-28T09:57:29;23.55;;;15.45;;
43678;SDS011;29279;50.858;4.392;2023-01-28T10:00:01;25.05;;;15.32;;
43678;SDS011;29279;50.858;4.392;2023-01-28T10:02:36;24.50;;;16.00;;
43678;SDS011;29279;50.858;4.392;2023-01-28T10:08:24;25.90;;;15.88;;
43678;SDS011;29279;50.858;4.392;2023-01-28T10:17:16;24.00;;;16.23;;
43678;SDS011;29279;50.858;4.392;2023-01-28T10:19:55;25.00;;;16.45;;
43678;SDS011;29279;50.858;4.392;2023-01-28T10:22:28;28.63;;;17.20;;
43678;SDS011;29279;50.858;4.392;2023-01-28T10:25:05;30.73;;;19.33;;
43678;SDS011;29279;50.858;4.392;2023-01-28T10:27:40;27.35;;;17.50;;
43678;SDS011;29279;50.858;4.392;2023-01-28T10:30:13;26.50;;;17.05;;
43678;SDS011;29279;50.858;4.392;2023-01-28T10:33:00;26.52;;;17.65;;
43678;SDS011;29279;50.858;4.392;2023-01-28T10:38:06;28.25;;;17.27;;
43678;SDS011;29279;50.858;4.392;2023-01-28T10:40:34;30.90;;;17.65;;
43678;SDS011;29279;50.858;4.392;2023-01-28T10:43:00;26.88;;;16.30;;
43678;SDS011;29279;50.858;4.392;2023-01-28T10:45:31;23.92;;;16.27;;
43678;SDS011;29279;50.858;4.392;2023-01-28T10:48:06;24.83;;;16.33;;
43678;SDS011;29279;50.858;4.392;2023-01-28T10:50:32;23.90;;;16.55;;
43678;SDS011;29279;50.858;4.392;2023-01-28T10:53:03;30.95;;;16.38;;
43678;SDS011;29279;50.858;4.392;2023-01-28T10:58:22;22.33;;;14.45;;
43678;SDS011;29279;50.858;4.392;2023-01-28T11:00:56;21.95;;;15.45;;
43678;SDS011;29279;50.858;4.392;2023-01-28T11:03:25;20.98;;;14.82;;
43678;SDS011;29279;50.858;4.392;2023-01-28T11:05:53;23.17;;;15.48;;
43678;SDS011;29279;50.858;4.392;2023-01-28T11:08:20;24.92;;;15.05;;
43678;SDS011;29279;50.858;4.392;2023-01-28T11:10:48;26.98;;;14.60;;
43678;SDS011;29279;50.858;4.392;2023-01-28T11:15:46;18.55;;;13.85;;
43678;SDS011;29279;50.858;4.392;2023-01-28T11:18:16;23.35;;;14.52;;
43678;SDS011;29279;50.858;4.392;2023-01-28T11:20:48;20.80;;;14.38;;
43678;SDS011;29279;50.858;4.392;2023-01-28T11:23:35;23.08;;;14.30;;
43678;SDS011;29279;50.858;4.392;2023-01-28T11:26:06;25.50;;;16.45;;
43678;SDS011;29279;50.858;4.392;2023-01-28T11:28:41;24.38;;;14.48;;
43678;SDS011;29279;50.858;4.392;2023-01-28T11:31:08;21.15;;;14.98;;
43678;SDS011;29279;50.858;4.392;2023-01-28T11:33:58;23.05;;;14.93;;
43678;SDS011;29279;50.858;4.392;2023-01-28T11:36:27;20.77;;;14.40;;
43678;SDS011;29279;50.858;4.392;2023-01-28T11:41:31;20.27;;;14.52;;
43678;SDS011;29279;50.858;4.392;2023-01-28T11:43:58;24.75;;;16.27;;
43678;SDS011;29279;50.858;4.392;2023-01-28T11:51:46;29.65;;;15.88;;
43678;SDS011;29279;50.858;4.392;2023-01-28T11:56:55;25.98;;;14.98;;
43678;SDS011;29279;50.858;4.392;2023-01-28T12:05:20;30.90;;;18.45;;
43678;SDS011;29279;50.858;4.392;2023-01-28T12:08:05;28.40;;;17.73;;
43678;SDS011;29279;50.858;4.392;2023-01-28T12:21:04;21.60;;;14.88;;
43678;SDS011;29279;50.858;4.392;2023-01-28T12:26:18;31.63;;;12.77;;
43678;SDS011;29279;50.858;4.392;2023-01-28T12:29:10;19.88;;;14.70;;
43678;SDS011;29279;50.858;4.392;2023-01-28T12:35:06;22.02;;;14.10;;
43678;SDS011;29279;50.858;4.392;2023-01-28T12:43:19;20.40;;;14.00;;
43678;SDS011;29279;50.858;4.392;2023-01-28T12:49:41;21.42;;;14.90;;
43678;SDS011;29279;50.858;4.392;2023-01-28T12:51:52;23.15;;;15.77;;
43678;SDS011;29279;50.858;4.392;2023-01-28T12:54:58;22.80;;;15.88;;
43678;SDS011;29279;50.858;4.392;2023-01-28T12:57:26;16.38;;;13.88;;
43678;SDS011;29279;50.858;4.392;2023-01-28T13:02:29;18.88;;;14.35;;
43678;SDS011;29279;50.858;4.392;2023-01-28T13:05:22;15.93;;;13.77;;
43678;SDS011;29279;50.858;4.392;2023-01-28T13:08:02;16.25;;;13.30;;
43678;SDS011;29279;50.858;4.392;2023-01-28T13:10:37;17.20;;;13.63;;
43678;SDS011;29279;50.858;4.392;2023-01-28T13:13:09;16.23;;;12.98;;
43678;SDS011;29279;50.858;4.392;2023-01-28T13:15:41;17.80;;;13.55;;
43678;SDS011;29279;50.858;4.392;2023-01-28T13:20:54;21.63;;;14.90;;
43678;SDS011;29279;50.858;4.392;2023-01-28T13:25:55;19.35;;;14.75;;
43678;SDS011;29279;50.858;4.392;2023-01-28T13:28:24;24.42;;;14.73;;
43678;SDS011;29279;50.858;4.392;2023-01-28T13:30:59;18.67;;;14.23;;
43678;SDS011;29279;50.858;4.392;2023-01-28T13:33:34;18.85;;;14.85;;
43678;SDS011;29279;50.858;4.392;2023-01-28T13:36:22;18.77;;;16.00;;
43678;SDS011;29279;50.858;4.392;2023-01-28T13:39:01;19.88;;;15.38;;
43678;SDS011;29279;50.858;4.392;2023-01-28T13:46:50;23.35;;;15.73;;
43678;SDS011;29279;50.858;4.392;2023-01-28T13:49:27;26.40;;;16.45;;
43678;SDS011;29279;50.858;4.392;2023-01-28T13:52:00;18.83;;;16.05;;
43678;SDS011;29279;50.858;4.392;2023-01-28T13:54:35;22.95;;;15.75;;
43678;SDS011;29279;50.858;4.392;2023-01-28T14:19:45;23.67;;;16.92;;
43678;SDS011;29279;50.858;4.392;2023-01-28T14:22:15;26.65;;;17.25;;
43678;SDS011;29279;50.858;4.392;2023-01-28T14:24:43;24.67;;;17.38;;
43678;SDS011;29279;50.858;4.392;2023-01-28T14:27:15;25.90;;;16.60;;
43678;SDS011;29279;50.858;4.392;2023-01-28T14:32:46;23.45;;;16.58;;
43678;SDS011;29279;50.858;4.392;2023-01-28T14:35:33;22.05;;;16.10;;
43678;SDS011;29279;50.858;4.392;2023-01-28T14:38:05;22.10;;;16.05;;
43678;SDS011;29279;50.858;4.392;2023-01-28T14:40:34;24.13;;;16.42;;
43678;SDS011;29279;50.858;4.392;2023-01-28T14:43:02;22.25;;;16.08;;
43678;SDS011;29279;50.858;4.392;2023-01-28T14:48:19;22.13;;;16.85;;
43678;SDS011;29279;50.858;4.392;2023-01-28T14:51:15;28.15;;;16.15;;
43678;SDS011;29279;50.858;4.392;2023-01-28T14:59:06;23.15;;;16.45;;
43678;SDS011;29279;50.858;4.392;2023-01-28T15:01:41;24.35;;;16.98;;
43678;SDS011;29279;50.858;4.392;2023-01-28T15:04:22;22.08;;;15.20;;
43678;SDS011;29279;50.858;4.392;2023-01-28T15:06:48;24.60;;;17.23;;
43678;SDS011;29279;50.858;4.392;2023-01-28T15:09:15;25.52;;;16.75;;
43678;SDS011;29279;50.858;4.392;2023-01-28T15:11:41;21.55;;;15.45;;
43678;SDS011;29279;50.858;4.392;2023-01-28T15:14:21;26.58;;;17.25;;
43678;SDS011;29279;50.858;4.392;2023-01-28T15:16:51;24.10;;;16.77;;
43678;SDS011;29279;50.858;4.392;2023-01-28T15:19:19;25.15;;;16.80;;
43678;SDS011;29279;50.858;4.392;2023-01-28T15:22:06;27.40;;;17.80;;
43678;SDS011;29279;50.858;4.392;2023-01-28T15:24:33;30.02;;;17.50;;
43678;SDS011;29279;50.858;4.392;2023-01-28T15:26:59;28.80;;;17.65;;
43678;SDS011;29279;50.858;4.392;2023-01-28T15:29:33;27.00;;;17.42;;
43678;SDS011;29279;50.858;4.392;2023-01-28T15:32:02;26.50;;;17.73;;
43678;SDS011;29279;50.858;4.392;2023-01-28T15:34:29;23.40;;;17.10;;
43678;SDS011;29279;50.858;4.392;2023-01-28T15:36:56;26.27;;;17.25;;
43678;SDS011;29279;50.858;4.392;2023-01-28T15:39:24;30.60;;;16.92;;
43678;SDS011;29279;50.858;4.392;2023-01-28T15:41:51;24.17;;;17.20;;
43678;SDS011;29279;50.858;4.392;2023-01-28T15:46:55;28.85;;;17.95;;
43678;SDS011;29279;50.858;4.392;2023-01-28T15:49:21;24.75;;;16.38;;
43678;SDS011;29279;50.858;4.392;2023-01-28T15:51:52;25.25;;;16.90;;
43678;SDS011;29279;50.858;4.392;2023-01-28T15:54:18;23.70;;;16.48;;
43678;SDS011;29279;50.858;4.392;2023-01-28T15:56:44;24.67;;;17.13;;
43678;SDS011;29279;50.858;4.392;2023-01-28T16:01:42;26.75;;;16.67;;
43678;SDS011;29279;50.858;4.392;2023-01-28T16:04:20;26.30;;;16.85;;
43678;SDS011;29279;50.858;4.392;2023-01-28T16:06:50;27.33;;;17.00;;
43678;SDS011;29279;50.858;4.392;2023-01-28T16:11:52;24.58;;;16.02;;
43678;SDS011;29279;50.858;4.392;2023-01-28T16:14:26;26.90;;;16.48;;
43678;SDS011;29279;50.858;4.392;2023-01-28T16:17:01;23.30;;;15.57;;
43678;SDS011;29279;50.858;4.392;2023-01-28T16:22:03;44.53;;;25.27;;
43678;SDS011;29279;50.858;4.392;2023-01-28T16:24:31;25.45;;;16.02;;
43678;SDS011;29279;50.858;4.392;2023-01-28T16:27:03;28.00;;;18.00;;
43678;SDS011;29279;50.858;4.392;2023-01-28T16:29:34;32.25;;;20.10;;
43678;SDS011;29279;50.858;4.392;2023-01-28T16:32:00;28.77;;;17.60;;
43678;SDS011;29279;50.858;4.392;2023-01-28T16:34:27;25.88;;;16.83;;
43678;SDS011;29279;50.858;4.392;2023-01-28T16:36:59;29.67;;;18.00;;
43678;SDS011;29279;50.858;4.392;2023-01-28T16:39:25;28.17;;;17.30;;
43678;SDS011;29279;50.858;4.392;2023-01-28T16:41:51;25.95;;;16.48;;
43678;SDS011;29279;50.858;4.392;2023-01-28T16:44:17;22.17;;;15.65;;
43678;SDS011;29279;50.858;4.392;2023-01-28T16:46:43;26.05;;;16.63;;
43678;SDS011;29279;50.858;4.392;2023-01-28T16:49:09;27.20;;;17.15;;
43678;SDS011;29279;50.858;4.392;2023-01-28T16:51:36;22.85;;;15.60;;
43678;SDS011;29279;50.858;4.392;2023-01-28T16:54:04;25.92;;;16.25;;
43678;SDS011;29279;50.858;4.392;2023-01-28T16:56:30;22.65;;;15.20;;
43678;SDS011;29279;50.858;4.392;2023-01-28T16:58:57;24.05;;;14.73;;
43678;SDS011;29279;50.858;4.392;2023-01-28T17:01:23;22.10;;;14.98;;